createdAt,value
2022-07-27T00:02:22.738Z,98378.00
2022-07-27T00:05:10.330Z,98375.00
2022-07-27T00:07:57.953Z,98373.00
2022-07-27T00:10:45.464Z,98382.00
2022-07-27T00:13:33.148Z,98383.00
2022-07-27T00:16:20.748Z,98385.00
2022-07-27T00:19:09.581Z,98380.00
2022-07-27T00:21:58.673Z,98386.00
2022-07-27T00:24:47.602Z,98390.00
2022-07-27T00:27:35.149Z,98380.00
2022-07-27T00:30:23.659Z,98383.00
2022-07-27T00:33:11.233Z,98382.00
2022-07-27T00:36:05.703Z,98382.00
2022-07-27T00:38:53.556Z,98373.00
2022-07-27T00:41:41.144Z,98368.00
2022-07-27T00:44:31.558Z,98375.00
2022-07-27T00:47:19.093Z,98372.00
2022-07-27T00:50:07.984Z,98373.00
2022-07-27T00:52:55.809Z,98370.00
2022-07-27T00:55:44.143Z,98360.00
2022-07-27T00:58:32.457Z,98371.00
2022-07-27T01:01:20.738Z,98361.00
2022-07-27T01:04:09.116Z,98364.00
2022-07-27T01:06:57.246Z,98359.00
2022-07-27T01:09:58.200Z,98353.00
2022-07-27T01:12:47.433Z,98358.00
2022-07-27T01:15:37.709Z,98366.00
2022-07-27T01:18:36.704Z,98370.00
2022-07-27T01:21:24.294Z,98370.00
2022-07-27T01:24:12.308Z,98362.00
2022-07-27T01:27:04.473Z,98364.00
2022-07-27T01:29:52.039Z,98373.00
2022-07-27T01:32:39.622Z,98384.00
2022-07-27T01:35:27.208Z,98376.00
2022-07-27T01:38:14.778Z,98383.00
2022-07-27T01:41:02.359Z,98378.00
2022-07-27T01:43:50.049Z,98380.00
2022-07-27T01:46:38.317Z,98378.00
2022-07-27T01:49:26.222Z,98372.00
2022-07-27T01:52:13.921Z,98355.00
2022-07-27T01:55:01.642Z,98353.00
2022-07-27T01:57:49.480Z,98348.00
2022-07-27T02:00:38.372Z,98362.00
2022-07-27T02:03:25.914Z,98362.00
2022-07-27T02:06:13.538Z,98352.00
2022-07-27T02:09:01.126Z,98355.00
2022-07-27T02:12:07.359Z,98344.00
2022-07-27T02:14:54.922Z,98336.00
2022-07-27T02:17:44.857Z,98338.00
2022-07-27T02:20:32.957Z,98336.00
2022-07-27T02:23:20.813Z,98332.00
2022-07-27T02:26:09.338Z,98335.00
2022-07-27T02:28:56.848Z,98335.00
2022-07-27T02:31:44.507Z,98327.00
2022-07-27T02:34:32.038Z,98330.00
2022-07-27T02:37:19.773Z,98338.00
2022-07-27T02:40:08.273Z,98340.00
2022-07-27T02:42:57.094Z,98341.00
2022-07-27T02:45:46.532Z,98340.00
2022-07-27T02:48:34.510Z,98337.00
2022-07-27T02:51:22.103Z,98341.00
2022-07-27T02:54:09.678Z,98340.00
2022-07-27T02:56:57.408Z,98340.00
2022-07-27T02:59:44.980Z,98346.00
2022-07-27T03:02:32.496Z,98345.00
2022-07-27T03:05:20.893Z,98331.00
2022-07-27T03:08:08.901Z,98335.00
2022-07-27T03:10:56.484Z,98347.00
2022-07-27T03:13:44.102Z,98342.00
2022-07-27T03:16:31.663Z,98348.00
2022-07-27T03:19:19.278Z,98353.00
2022-07-27T03:22:06.887Z,98357.00
2022-07-27T03:24:54.382Z,98360.00
2022-07-27T03:27:41.968Z,98362.00
2022-07-27T03:30:29.779Z,98362.00
2022-07-27T03:33:18.088Z,98361.00
2022-07-27T03:36:07.392Z,98358.00
2022-07-27T03:38:54.978Z,98364.00
2022-07-27T03:41:42.517Z,98359.00
2022-07-27T03:44:30.143Z,98368.00
2022-07-27T03:47:18.687Z,98371.00
2022-07-27T03:50:06.963Z,98377.00
2022-07-27T03:52:54.523Z,98387.00
2022-07-27T03:55:42.221Z,98380.00
2022-07-27T03:58:29.846Z,98380.00
2022-07-27T04:01:17.554Z,98369.00
2022-07-27T04:04:05.604Z,98375.00
2022-07-27T04:06:53.182Z,98367.00
2022-07-27T04:09:40.843Z,98371.00
2022-07-27T04:12:31.804Z,98369.00
2022-07-27T04:15:21.531Z,98362.00
2022-07-27T04:18:09.122Z,98354.00
2022-07-27T04:20:56.662Z,98348.00
2022-07-27T04:23:44.208Z,98362.00
2022-07-27T04:26:33.051Z,98358.00
2022-07-27T04:29:21.468Z,98357.00
2022-07-27T04:32:09.449Z,98349.00
2022-07-27T04:34:57.163Z,98350.00
2022-07-27T04:37:57.902Z,98365.00
2022-07-27T04:40:47.197Z,98372.00
2022-07-27T04:43:34.683Z,98364.00
2022-07-27T04:46:22.538Z,98366.00
2022-07-27T04:49:11.676Z,98365.00
2022-07-27T04:51:59.582Z,98365.00
2022-07-27T04:54:52.282Z,98367.00
2022-07-27T04:57:42.793Z,98371.00
2022-07-27T05:00:30.364Z,98371.00
2022-07-27T05:03:19.318Z,98376.00
2022-07-27T05:06:07.423Z,98376.00
2022-07-27T05:08:54.958Z,98373.00
2022-07-27T05:11:50.972Z,98374.00
2022-07-27T05:14:39.583Z,98373.00
2022-07-27T05:17:27.068Z,98377.00
2022-07-27T05:20:15.848Z,98374.00
2022-07-27T05:23:03.408Z,98381.00
2022-07-27T05:25:50.951Z,98379.00
2022-07-27T05:28:38.492Z,98364.00
2022-07-27T05:31:26.145Z,98374.00
2022-07-27T05:34:13.702Z,98371.00
2022-07-27T05:37:01.362Z,98369.00
2022-07-27T05:39:48.897Z,98372.00
2022-07-27T05:42:36.782Z,98369.00
2022-07-27T05:45:24.456Z,98379.00
2022-07-27T05:48:12.038Z,98382.00
2022-07-27T05:50:59.677Z,98394.00
2022-07-27T05:53:47.318Z,98391.00
2022-07-27T05:56:35.753Z,98395.00
2022-07-27T05:59:23.272Z,98393.00
2022-07-27T06:02:10.882Z,98395.00
2022-07-27T06:04:58.634Z,98393.00
2022-07-27T06:08:08.801Z,98394.00
2022-07-27T06:10:56.457Z,98387.00
2022-07-27T06:13:44.169Z,98391.00
2022-07-27T06:16:31.855Z,98393.00
2022-07-27T06:19:19.578Z,98389.00
2022-07-27T06:22:07.764Z,98391.00
2022-07-27T06:24:55.379Z,98383.00
2022-07-27T06:27:43.573Z,98381.00
2022-07-27T06:30:31.358Z,98387.00
2022-07-27T06:33:23.357Z,98373.00
2022-07-27T06:36:12.848Z,98378.00
2022-07-27T06:39:00.420Z,98378.00
2022-07-27T06:41:49.207Z,98380.00
2022-07-27T06:44:36.815Z,98376.00
2022-07-27T06:47:28.649Z,98388.00
2022-07-27T06:50:16.439Z,98379.00
2022-07-27T06:53:04.030Z,98377.00
2022-07-27T06:55:51.732Z,98384.00
2022-07-27T06:58:39.372Z,98383.00
2022-07-27T07:01:27.078Z,98382.00
2022-07-27T07:04:14.747Z,98372.00
2022-07-27T07:07:07.049Z,98374.00
2022-07-27T07:09:55.133Z,98366.00
2022-07-27T07:12:42.698Z,98366.00
2022-07-27T07:15:30.358Z,98368.00
2022-07-27T07:18:17.861Z,98366.00
2022-07-27T07:21:05.471Z,98361.00
2022-07-27T07:23:53.108Z,98368.00
2022-07-27T07:26:41.487Z,98364.00
2022-07-27T07:29:29.047Z,98368.00
2022-07-27T07:32:16.898Z,98357.00
2022-07-27T07:35:05.276Z,98358.00
2022-07-27T07:37:52.802Z,98355.00
2022-07-27T07:40:43.735Z,98352.00
2022-07-27T07:43:32.137Z,98350.00
2022-07-27T07:46:19.755Z,98348.00
2022-07-27T07:49:07.455Z,98354.00
2022-07-27T07:51:55.033Z,98357.00
2022-07-27T07:54:42.755Z,98365.00
2022-07-27T07:57:30.319Z,98357.00
2022-07-27T08:00:19.172Z,98361.00
2022-07-27T08:03:06.786Z,98360.00
2022-07-27T08:05:54.386Z,98358.00
2022-07-27T08:08:42.010Z,98363.00
2022-07-27T08:11:29.590Z,98357.00
2022-07-27T08:14:17.173Z,98351.00
2022-07-27T08:17:04.961Z,98361.00
2022-07-27T08:19:52.551Z,98353.00
2022-07-27T08:22:40.467Z,98349.00
2022-07-27T08:25:28.087Z,98351.00
2022-07-27T08:28:16.678Z,98356.00
2022-07-27T08:31:13.938Z,98355.00
2022-07-27T08:34:03.736Z,98353.00
2022-07-27T08:36:51.283Z,98354.00
2022-07-27T08:40:37.331Z,98351.00
2022-07-27T08:42:49.304Z,98341.00
2022-07-27T08:45:38.538Z,98352.00
2022-07-27T08:48:31.917Z,98343.00
2022-07-27T08:51:23.992Z,98348.00
2022-07-27T08:54:11.929Z,98347.00
2022-07-27T08:56:59.499Z,98344.00
2022-07-27T08:59:47.149Z,98348.00
2022-07-27T09:02:35.561Z,98342.00
2022-07-27T09:05:24.037Z,98347.00
2022-07-27T09:08:21.661Z,98353.00
2022-07-27T09:11:15.967Z,98352.00
2022-07-27T09:14:09.872Z,98350.00
2022-07-27T09:17:46.625Z,98357.00
2022-07-27T09:20:17.425Z,98349.00
2022-07-27T09:23:07.060Z,98350.00
2022-07-27T09:26:36.069Z,98349.00
2022-07-27T09:29:35.659Z,98361.00
2022-07-27T09:32:23.270Z,98355.00
2022-07-27T09:35:30.161Z,98354.00
2022-07-27T09:38:24.587Z,98361.00
2022-07-27T09:41:13.340Z,98360.00
2022-07-27T09:47:28.863Z,98366.00
2022-07-27T09:50:20.045Z,98364.00
2022-07-27T09:53:42.519Z,98366.00
2022-07-27T09:56:33.411Z,98372.00
2022-07-27T09:59:20.922Z,98368.00
2022-07-27T10:02:09.286Z,98373.00
2022-07-27T10:04:57.151Z,98368.00
2022-07-27T10:07:44.933Z,98364.00
2022-07-27T10:10:32.613Z,98373.00
2022-07-27T10:13:20.184Z,98376.00
2022-07-27T10:16:15.955Z,98372.00
2022-07-27T10:19:07.917Z,98376.00
2022-07-27T10:21:56.353Z,98375.00
2022-07-27T10:24:44.315Z,98371.00
2022-07-27T10:27:32.085Z,98369.00
2022-07-27T10:30:24.010Z,98373.00
2022-07-27T10:33:43.473Z,98377.00
2022-07-27T10:36:30.919Z,98368.00
2022-07-27T10:39:35.578Z,98372.00
2022-07-27T10:42:32.299Z,98377.00
2022-07-27T10:45:20.229Z,98374.00
2022-07-27T10:48:08.184Z,98370.00
2022-07-27T10:50:55.876Z,98365.00
2022-07-27T10:57:02.076Z,98356.00
2022-07-27T11:00:07.887Z,98361.00
2022-07-27T11:02:57.389Z,98351.00
2022-07-27T11:06:08.842Z,98353.00
2022-07-27T11:12:15.673Z,98345.00
2022-07-27T11:15:04.865Z,98347.00
2022-07-27T11:18:01.792Z,98345.00
2022-07-27T11:20:51.756Z,98345.00
2022-07-27T11:23:50.849Z,98341.00
2022-07-27T11:26:49.567Z,98344.00
2022-07-27T11:29:43.531Z,98340.00
2022-07-27T11:32:36.371Z,98346.00
2022-07-27T11:35:24.346Z,98338.00
2022-07-27T11:38:12.378Z,98334.00
2022-07-27T11:41:15.222Z,98339.00
2022-07-27T11:44:17.197Z,98334.00
2022-07-27T11:47:05.430Z,98334.00
2022-07-27T11:49:53.032Z,98334.00
2022-07-27T11:52:41.638Z,98337.00
2022-07-27T11:55:29.319Z,98329.00
2022-07-27T11:58:18.635Z,98327.00
2022-07-27T12:01:06.142Z,98328.00
2022-07-27T12:04:14.000Z,98324.00
2022-07-27T12:07:23.371Z,98322.00
2022-07-27T12:10:11.436Z,98322.00
2022-07-27T12:12:59.035Z,98322.00
2022-07-27T12:15:57.725Z,98320.00
2022-07-27T12:18:45.659Z,98322.00
2022-07-27T12:21:33.915Z,98327.00
2022-07-27T12:24:38.729Z,98321.00
2022-07-27T12:27:27.000Z,98328.00
2022-07-27T12:30:16.737Z,98328.00
2022-07-27T12:33:08.741Z,98319.00
2022-07-27T12:35:58.775Z,98324.00
2022-07-27T12:38:51.367Z,98319.00
2022-07-27T12:41:40.170Z,98319.00
2022-07-27T12:44:37.109Z,98317.00
2022-07-27T12:47:42.692Z,98320.00
2022-07-27T12:50:30.248Z,98320.00
2022-07-27T12:53:18.268Z,98318.00
2022-07-27T12:56:09.997Z,98318.00
2022-07-27T12:59:04.800Z,98314.00
2022-07-27T13:01:53.213Z,98314.00
2022-07-27T13:04:41.174Z,98315.00
2022-07-27T13:07:28.831Z,98314.00
2022-07-27T13:10:21.081Z,98309.00
2022-07-27T13:13:09.399Z,98313.00
2022-07-27T13:15:57.109Z,98319.00
2022-07-27T13:18:44.683Z,98315.00
2022-07-27T13:21:32.276Z,98311.00
2022-07-27T13:24:20.794Z,98311.00
2022-07-27T13:27:09.034Z,98316.00
2022-07-27T13:29:57.232Z,98314.00
2022-07-27T13:32:48.754Z,98309.00
2022-07-27T13:35:36.691Z,98313.00
2022-07-27T13:38:24.215Z,98317.00
2022-07-27T13:41:11.879Z,98314.00
2022-07-27T13:43:59.450Z,98320.00
2022-07-27T13:46:48.099Z,98312.00
2022-07-27T13:49:35.729Z,98310.00
2022-07-27T13:52:24.529Z,98314.00
2022-07-27T13:55:12.093Z,98315.00
2022-07-27T13:57:59.650Z,98315.00
2022-07-27T14:00:48.862Z,98313.00
2022-07-27T14:03:38.748Z,98312.00
2022-07-27T14:06:26.915Z,98310.00
2022-07-27T14:09:14.945Z,98309.00
2022-07-27T14:12:06.273Z,98314.00
2022-07-27T14:14:53.911Z,98312.00
2022-07-27T14:17:41.742Z,98314.00
2022-07-27T14:20:29.386Z,98309.00
2022-07-27T14:23:16.952Z,98308.00
2022-07-27T14:26:08.203Z,98310.00
2022-07-27T14:28:57.782Z,98314.00
2022-07-27T14:31:45.393Z,98312.00
2022-07-27T14:34:33.112Z,98311.00
2022-07-27T14:37:20.915Z,98312.00
2022-07-27T14:40:09.497Z,98303.00
2022-07-27T14:42:57.230Z,98303.00
2022-07-27T14:45:46.321Z,98301.00
2022-07-27T14:49:04.699Z,98299.00
2022-07-27T14:51:41.893Z,98313.00
2022-07-27T14:54:31.729Z,98312.00
2022-07-27T14:57:22.298Z,98310.00
2022-07-27T15:00:13.482Z,98310.00
2022-07-27T15:03:01.033Z,98309.00
2022-07-27T15:05:50.055Z,98307.00
2022-07-27T15:08:38.258Z,98316.00
2022-07-27T15:11:25.952Z,98313.00
2022-07-27T15:14:13.546Z,98309.00
2022-07-27T15:17:01.128Z,98303.00
2022-07-27T15:19:48.871Z,98308.00
2022-07-27T15:22:37.828Z,98314.00
2022-07-27T15:25:25.547Z,98311.00
2022-07-27T15:28:13.292Z,98315.00
2022-07-27T15:31:00.885Z,98316.00
2022-07-27T15:33:48.507Z,98314.00
2022-07-27T15:36:40.572Z,98309.00
2022-07-27T15:39:31.357Z,98315.00
2022-07-27T15:42:19.192Z,98315.00
2022-07-27T15:45:07.414Z,98315.00
2022-07-27T15:47:55.048Z,98311.00
2022-07-27T15:50:50.668Z,98309.00
2022-07-27T15:53:38.386Z,98306.00
2022-07-27T15:56:26.031Z,98299.00
2022-07-27T15:59:14.610Z,98301.00
2022-07-27T16:02:02.531Z,98295.00
2022-07-27T16:04:50.082Z,98293.00
2022-07-27T16:07:41.675Z,98299.00
2022-07-27T16:10:30.153Z,98299.00
2022-07-27T16:13:17.833Z,98303.00
2022-07-27T16:16:24.346Z,98295.00
2022-07-27T16:19:14.297Z,98300.00
2022-07-27T16:22:03.824Z,98308.00
2022-07-27T16:24:52.082Z,98301.00
2022-07-27T16:27:39.712Z,98295.00
2022-07-27T16:30:33.000Z,98306.00
2022-07-27T16:33:24.923Z,98305.00
2022-07-27T16:36:13.342Z,98310.00
2022-07-27T16:39:00.958Z,98315.00
2022-07-27T16:41:50.536Z,98314.00
2022-07-27T16:44:40.224Z,98310.00
2022-07-27T16:47:27.800Z,98314.00
2022-07-27T16:50:15.406Z,98304.00
2022-07-27T16:53:02.992Z,98306.00
2022-07-27T16:55:51.277Z,98306.00
2022-07-27T16:58:39.662Z,98306.00
2022-07-27T17:01:29.207Z,98312.00
2022-07-27T17:04:16.919Z,98317.00
2022-07-27T17:07:04.661Z,98310.00
2022-07-27T17:09:53.165Z,98318.00
2022-07-27T17:12:40.681Z,98325.00
2022-07-27T17:15:29.819Z,98332.00
2022-07-27T17:18:17.557Z,98326.00
2022-07-27T17:21:05.737Z,98327.00
2022-07-27T17:23:53.590Z,98328.00
2022-07-27T17:26:41.194Z,98344.00
2022-07-27T17:29:28.803Z,98360.00
2022-07-27T17:32:16.462Z,98369.00
2022-07-27T17:35:05.157Z,98370.00
2022-07-27T17:38:07.971Z,98369.00
2022-07-27T17:40:55.933Z,98372.00
2022-07-27T17:43:43.551Z,98376.00
2022-07-27T17:46:34.366Z,98371.00
2022-07-27T17:49:26.151Z,98380.00
2022-07-27T17:52:14.715Z,98376.00
2022-07-27T17:55:03.832Z,98384.00
2022-07-27T17:57:51.578Z,98377.00
2022-07-27T18:00:39.409Z,98376.00
2022-07-27T18:03:27.196Z,98377.00
2022-07-27T18:06:14.691Z,98378.00
2022-07-27T18:09:02.323Z,98385.00
2022-07-27T18:11:50.034Z,98382.00
2022-07-27T18:14:57.704Z,98395.00
2022-07-27T18:17:45.248Z,98398.00
2022-07-27T18:20:32.868Z,98397.00
2022-07-27T18:23:23.256Z,98389.00
2022-07-27T18:26:10.993Z,98400.00
2022-07-27T18:28:58.525Z,98392.00
2022-07-27T18:31:46.118Z,98393.00
2022-07-27T18:34:33.779Z,98391.00
2022-07-27T18:37:21.902Z,98402.00
2022-07-27T18:40:10.968Z,98406.00
2022-07-27T18:42:58.520Z,98411.00
2022-07-27T18:45:46.940Z,98415.00
2022-07-27T18:48:34.597Z,98423.00
2022-07-27T18:51:22.254Z,98415.00
2022-07-27T18:54:09.823Z,98427.00
2022-07-27T18:56:57.667Z,98429.00
2022-07-27T18:59:47.951Z,98428.00
2022-07-27T19:02:39.229Z,98434.00
2022-07-27T19:05:40.960Z,98446.00
2022-07-27T19:08:29.524Z,98458.00
2022-07-27T19:11:17.490Z,98461.00
2022-07-27T19:14:05.249Z,98474.00
2022-07-27T19:16:52.955Z,98482.00
2022-07-27T19:19:40.508Z,98481.00
2022-07-27T19:22:29.223Z,98483.00
2022-07-27T19:25:17.478Z,98487.00
2022-07-27T19:28:05.348Z,98493.00
2022-07-27T19:30:54.003Z,98489.00
2022-07-27T19:33:41.570Z,98499.00
2022-07-27T19:36:29.329Z,98493.00
2022-07-27T19:39:17.336Z,98500.00
2022-07-27T19:42:05.068Z,98498.00
2022-07-27T19:44:52.853Z,98513.00
2022-07-27T19:47:41.524Z,98505.00
2022-07-27T19:50:29.274Z,98516.00
2022-07-27T19:53:16.874Z,98506.00
2022-07-27T19:56:04.703Z,98505.00
2022-07-27T19:58:52.268Z,98514.00
2022-07-27T20:01:39.908Z,98512.00
2022-07-27T20:04:27.490Z,98511.00
2022-07-27T20:07:15.134Z,98511.00
2022-07-27T20:10:04.018Z,98515.00
2022-07-27T20:12:52.809Z,98519.00
2022-07-27T20:15:40.355Z,98524.00
2022-07-27T20:18:27.985Z,98530.00
2022-07-27T20:21:23.430Z,98527.00
2022-07-27T20:24:12.726Z,98535.00
2022-07-27T20:27:00.289Z,98542.00
2022-07-27T20:29:47.819Z,98543.00
2022-07-27T20:32:36.325Z,98540.00
2022-07-27T20:35:23.928Z,98544.00
2022-07-27T20:38:24.325Z,98537.00
2022-07-27T20:41:11.991Z,98541.00
2022-07-27T20:43:59.709Z,98540.00
2022-07-27T20:46:47.697Z,98535.00
2022-07-27T20:49:35.734Z,98528.00
2022-07-27T20:52:23.485Z,98528.00
2022-07-27T20:55:12.147Z,98542.00
2022-07-27T20:58:00.235Z,98535.00
2022-07-27T21:00:47.837Z,98530.00
2022-07-27T21:03:35.717Z,98538.00
2022-07-27T21:06:23.371Z,98543.00
2022-07-27T21:09:11.794Z,98546.00
2022-07-27T21:11:59.496Z,98548.00
2022-07-27T21:14:47.032Z,98550.00
2022-07-27T21:17:34.535Z,98553.00
2022-07-27T21:20:22.304Z,98557.00
2022-07-27T21:23:28.390Z,98555.00
2022-07-27T21:26:18.209Z,98567.00
2022-07-27T21:29:06.428Z,98574.00
2022-07-27T21:31:55.463Z,98576.00
2022-07-27T21:34:43.059Z,98583.00
2022-07-27T21:37:30.699Z,98579.00
2022-07-27T21:40:18.402Z,98582.00
2022-07-27T21:43:05.954Z,98595.00
2022-07-27T21:45:53.546Z,98596.00
2022-07-27T21:48:41.785Z,98589.00
2022-07-27T21:51:29.553Z,98594.00
2022-07-27T21:54:17.228Z,98590.00
2022-07-27T21:57:05.114Z,98590.00
2022-07-27T21:59:52.654Z,98588.00
2022-07-27T22:02:40.214Z,98593.00
